Great Falls International Airport
KGTF : now visible

Airfield :











YOU CAN JOIN US ON...

 
LOGIN :

Register | Disclaimer

   EN    FR    IT 

 









Legend :    VFR   Marginal VFR   IFR   Intensive IFR   Very Intensive IFR
Visi :
Ceiling :
>= 8 km
>= 3000ft
5 to 8 km
1000 to 3000 ft
1500m to 5 km
500 to 1000 ft
800 to 1500m
200 to 500 ft
< 800m
< 200 ft
Symbols :   Thunderstorms  Fog  Heavy snow  Heavy precipitations  Wind > 20 kt







- Airport Elevation : 3680 ft
- IATA code : GTF


KGTF - Great Falls International

CURRENT METAR :
  • 210553Z 36010KT 9SM -RA BKN022 BKN029 OVC039 05/05 A2998 RMK AO2 SLP170 P0003 60007 T00500050 10061 20050 53007

EXPIRED METARs :
  • 210541Z 36009KT 10SM -RA BKN021 OVC029 05/05 A2997 RMK AO2 P0002 T00500050
  • 210453Z 36008KT 9SM -RA FEW026 OVC032 05/05 A2997 RMK AO2 SLP166 P0002 T00500050
  • 210450Z 36007KT 9SM -RA FEW025 OVC033 05/05 A2997 RMK AO2 P0002
  • 210353Z 02006KT 10SM -RA OVC022 05/05 A2996 RMK AO2 SLP162 P0000 T00500050

TAF KGTF
Valid from the 21 at 06:00 until the 22 at 06:00 UTC


210537Z 2106/2206 36008KT 6SM -RA BR FEW025 OVC030
FM211600 05008KT P6SM BKN035 OVC060
FM212100 07009KT P6SM SCT050 BKN100
FM220100 14006KT P6SM SCT120
KZLC FIR / North America



MET'MAP, your aeronautical weather chart ! - Copyright ORBIFLY December 2007 - Disclaimer

ORBIFLY MET'MAP TEAM :

Programming & Development : Alexandra Zaïnal
Concept & Development : Baudouin d'Aumeries
Co-Development & Prog : Marc-Olivier Méhu
Technical & hardware support : Manuel Goepfert

Contact : metmap@orbifly.com




SOURCES & CREDITS :

   NOAA       Earth
Advisory